Time;durP1;ratioP1;P1;durP2;ratioP2;P2;SDS_P1;SDS_P2;PMS_P1;PMS_P2;Temp;Humidity;BMP_temperature;BMP_pressure;BME280_temperature;BME280_humidity;BME280_pressure;Samples;Min_cycle;Max_cycle;Signal;HPM_P1;HPM_P2
2022/09/11 04:01:21;;;;;;;3.33;2.57;;;12.30;96.30;;;;;;5525086;23;20880;-77
2022/09/11 04:03:47;;;;;;;3.33;2.80;;;12.30;96.30;;;;;;4966984;28;20413;-77
2022/09/11 04:06:12;;;;;;;3.80;2.70;;;12.30;96.30;;;;;;4961610;28;20493;-78
2022/09/11 04:08:40;;;;;;;3.20;2.90;;;12.30;96.30;;;;;;4955424;28;20671;-78
2022/09/11 04:11:05;;;;;;;5.20;3.87;;;12.30;96.30;;;;;;4973243;28;20613;-78
2022/09/11 04:13:33;;;;;;;3.97;3.43;;;12.40;96.30;;;;;;4975207;28;20501;-78
2022/09/11 04:16:02;;;;;;;4.27;3.87;;;12.40;96.30;;;;;;4998391;28;20190;-77
2022/09/11 04:18:29;;;;;;;3.63;3.33;;;12.40;96.30;;;;;;4986006;28;20424;-78
2022/09/11 04:20:55;;;;;;;4.03;3.50;;;12.40;96.30;;;;;;4980355;28;20789;-78
2022/09/11 04:23:21;;;;;;;4.83;4.33;;;12.50;96.30;;;;;;4975019;28;20940;-80
2022/09/11 04:25:46;;;;;;;4.10;3.00;;;12.50;96.30;;;;;;4990037;28;20208;-79
2022/09/11 04:28:13;;;;;;;3.47;3.17;;;12.50;96.30;;;;;;4989482;28;20610;-81
2022/09/11 04:30:39;;;;;;;4.93;3.90;;;12.50;96.30;;;;;;4974895;28;20193;-78
2022/09/11 04:33:05;;;;;;;4.80;3.70;;;12.50;96.30;;;;;;4974868;28;20418;-78
2022/09/11 04:35:31;;;;;;;3.93;3.00;;;12.50;96.30;;;;;;4980640;28;20513;-78
2022/09/11 04:37:57;;;;;;;8.97;4.10;;;12.50;96.30;;;;;;4954842;29;20418;-78
2022/09/11 04:40:22;;;;;;;4.37;3.97;;;12.50;96.30;;;;;;4949909;28;20443;-78
2022/09/11 04:42:48;;;;;;;5.70;4.43;;;12.40;96.30;;;;;;4945717;29;20580;-78
2022/09/11 04:45:13;;;;;;;7.30;3.90;;;12.40;96.30;;;;;;4939595;29;20679;-79
2022/09/11 04:47:39;;;;;;;4.07;3.67;;;12.40;96.30;;;;;;4947081;29;20738;-79
2022/09/11 04:50:06;;;;;;;5.17;4.20;;;12.40;96.30;;;;;;4944438;29;20223;-79
2022/09/11 04:52:33;;;;;;;6.47;4.67;;;12.40;96.30;;;;;;4933652;29;20462;-80
2022/09/11 04:54:58;;;;;;;4.57;4.17;;;12.40;96.30;;;;;;4935608;29;20982;-79
2022/09/11 04:57:24;;;;;;;5.10;4.53;;;12.40;96.30;;;;;;4935747;29;20494;-79
2022/09/11 04:59:50;;;;;;;5.10;4.60;;;12.50;96.30;;;;;;4943262;29;20663;-78
2022/09/11 05:02:15;;;;;;;4.80;4.37;;;12.50;96.30;;;;;;4941107;29;20358;-78
2022/09/11 05:04:41;;;;;;;6.00;5.50;;;12.50;96.30;;;;;;4953212;28;20551;-79
2022/09/11 05:07:07;;;;;;;5.93;5.37;;;12.60;96.30;;;;;;4953123;29;20179;-78
2022/09/11 05:09:32;;;;;;;10.17;5.67;;;12.60;96.30;;;;;;4954125;29;20183;-80
2022/09/11 05:11:57;;;;;;;6.00;5.13;;;12.60;96.30;;;;;;4954520;29;20608;-80
2022/09/11 05:14:24;;;;;;;7.07;6.37;;;12.60;96.30;;;;;;4954618;29;20186;-79
2022/09/11 05:16:51;;;;;;;6.73;6.13;;;12.70;96.30;;;;;;4954675;29;20179;-78
2022/09/11 05:19:17;;;;;;;6.90;6.30;;;12.70;96.30;;;;;;4953781;29;20918;-79
2022/09/11 05:21:43;;;;;;;7.40;6.70;;;12.70;96.30;;;;;;4954338;29;20453;-79
2022/09/11 05:24:09;;;;;;;10.00;7.80;;;12.70;96.30;;;;;;4954221;29;20577;-80
2022/09/11 05:26:36;;;;;;;13.13;7.63;;;12.70;96.30;;;;;;4954342;29;20214;-79
2022/09/11 05:29:06;;;;;;;9.97;8.40;;;12.70;96.30;;;;;;4953622;28;20175;-79
2022/09/11 05:31:31;;;;;;;12.13;8.77;;;12.80;96.30;;;;;;4954124;29;20506;-79
2022/09/11 05:33:59;;;;;;;9.60;8.50;;;12.80;96.30;;;;;;4952932;28;20942;-79
2022/09/11 05:36:25;;;;;;;8.57;7.87;;;12.90;96.30;;;;;;4952895;29;20187;-79
2022/09/11 05:38:52;;;;;;;9.97;8.97;;;12.90;96.30;;;;;;4952311;29;20461;-79
2022/09/11 05:41:17;;;;;;;10.07;8.60;;;12.90;96.30;;;;;;4962584;28;20496;-78
2022/09/11 05:43:43;;;;;;;8.77;7.90;;;13.00;96.30;;;;;;4973037;28;20422;-78
2022/09/11 05:46:15;;;;;;;13.73;9.50;;;13.10;96.30;;;;;;4988282;28;20548;-78
2022/09/11 05:48:41;;;;;;;10.33;9.30;;;13.20;96.30;;;;;;4972506;28;20174;-78
2022/09/11 05:51:11;;;;;;;11.87;10.77;;;13.20;96.30;;;;;;4973184;28;20434;-80
2022/09/11 05:53:37;;;;;;;12.87;10.07;;;13.20;96.30;;;;;;4973030;28;20418;-79
2022/09/11 05:56:14;;;;;;;13.30;10.10;;;13.20;96.30;;;;;;4972044;28;20417;-79
2022/09/11 05:58:40;;;;;;;11.70;10.50;;;13.20;96.30;;;;;;4972732;28;20412;-79
2022/09/11 06:01:18;;;;;;;11.33;10.20;;;13.20;96.30;;;;;;4973123;28;20548;-80
2022/09/11 06:03:44;;;;;;;13.67;11.00;;;13.20;96.30;;;;;;4973241;28;20425;-79
2022/09/11 06:06:11;;;;;;;12.50;11.40;;;13.30;96.30;;;;;;4972811;28;20418;-78
2022/09/11 06:08:38;;;;;;;15.03;11.40;;;13.20;96.30;;;;;;4948719;28;20206;-78
2022/09/11 06:11:06;;;;;;;15.57;12.27;;;13.30;96.30;;;;;;4972889;28;20901;-78
2022/09/11 06:13:34;;;;;;;11.57;10.37;;;13.30;96.30;;;;;;4972803;28;20409;-80
2022/09/11 06:16:01;;;;;;;12.30;11.20;;;13.30;96.30;;;;;;4972704;28;20421;-78
2022/09/11 06:18:27;;;;;;;15.13;10.40;;;13.30;96.30;;;;;;4976312;28;20397;-79
2022/09/11 06:20:58;;;;;;;11.73;10.27;;;13.40;96.30;;;;;;4977179;28;20511;-78
2022/09/11 06:23:24;;;;;;;12.73;10.83;;;13.50;96.30;;;;;;4977492;28;20417;-78
2022/09/11 06:25:53;;;;;;;12.87;11.67;;;13.50;96.30;;;;;;4970962;28;20454;-78
2022/09/11 06:28:22;;;;;;;12.60;10.27;;;13.60;96.30;;;;;;4957324;28;20779;-78
2022/09/11 06:30:50;;;;;;;10.67;9.57;;;13.60;96.30;;;;;;4957803;28;20438;-78
2022/09/11 06:33:19;;;;;;;10.83;9.83;;;13.70;96.30;;;;;;4957758;28;20414;-78
2022/09/11 06:35:54;;;;;;;11.70;10.57;;;13.80;96.30;;;;;;4957681;28;20929;-77
2022/09/11 06:38:19;;;;;;;11.70;10.00;;;13.90;96.30;;;;;;4955979;29;20768;-78
2022/09/11 06:40:44;;;;;;;10.97;9.80;;;14.20;96.30;;;;;;4962958;28;20491;-77
2022/09/11 06:43:11;;;;;;;10.97;9.87;;;14.40;96.30;;;;;;4976871;28;20517;-77
2022/09/11 06:45:37;;;;;;;11.47;9.33;;;14.60;96.30;;;;;;4976428;28;20198;-77
2022/09/11 06:48:03;;;;;;;10.43;9.10;;;14.70;96.30;;;;;;4976154;28;20471;-77
2022/09/11 06:50:28;;;;;;;12.00;8.83;;;14.60;96.30;;;;;;4976452;28;20194;-77
2022/09/11 06:52:54;;;;;;;10.57;9.67;;;14.60;96.30;;;;;;4991754;28;20417;-79
2022/09/11 06:55:19;;;;;;;10.37;8.60;;;14.60;96.30;;;;;;4976584;28;20471;-78
2022/09/11 06:57:44;;;;;;;10.47;9.40;;;14.60;96.30;;;;;;4964618;28;20189;-78
2022/09/11 07:00:10;;;;;;;10.63;9.63;;;14.50;96.30;;;;;;4955760;29;20240;-78
2022/09/11 07:02:36;;;;;;;11.93;10.73;;;14.60;96.30;;;;;;4957231;29;20655;-80
2022/09/11 07:05:02;;;;;;;12.60;10.87;;;14.70;96.30;;;;;;4955950;28;20203;-79
2022/09/11 07:07:27;;;;;;;11.50;10.40;;;14.60;96.30;;;;;;4957135;28;20175;-78
2022/09/11 07:09:53;;;;;;;12.37;10.77;;;14.40;96.30;;;;;;4956596;28;20225;-78
2022/09/11 07:12:22;;;;;;;11.47;10.37;;;14.30;96.30;;;;;;4955247;28;20222;-80
2022/09/11 07:14:48;;;;;;;10.30;9.30;;;14.30;96.30;;;;;;4957354;28;20175;-78
2022/09/11 07:17:13;;;;;;;9.90;9.00;;;14.10;96.30;;;;;;4956947;29;20561;-79
2022/09/11 07:19:39;;;;;;;12.43;11.23;;;14.00;96.30;;;;;;4956083;29;20179;-79
2022/09/11 07:22:04;;;;;;;13.70;11.53;;;14.00;96.30;;;;;;4945683;29;20832;-79
2022/09/11 07:24:30;;;;;;;11.83;10.73;;;13.90;96.30;;;;;;4952591;28;20199;-78
2022/09/11 07:26:56;;;;;;;13.80;12.47;;;14.00;96.30;;;;;;4956620;28;20179;-77
2022/09/11 07:29:21;;;;;;;18.83;12.90;;;14.00;96.30;;;;;;4956268;28;20182;-80
2022/09/11 07:31:47;;;;;;;17.73;13.23;;;13.90;96.30;;;;;;4955404;28;20199;-77
2022/09/11 07:34:12;;;;;;;12.70;11.60;;;13.80;96.30;;;;;;4952547;28;20191;-74
2022/09/11 07:36:37;;;;;;;13.57;11.77;;;13.70;96.30;;;;;;4955093;29;20237;-76
2022/09/11 07:39:03;;;;;;;13.90;12.70;;;13.60;96.30;;;;;;4956082;28;20190;-79
2022/09/11 07:41:30;;;;;;;17.13;13.60;;;13.60;96.30;;;;;;4957321;28;20611;-79
2022/09/11 07:43:59;;;;;;;15.73;13.77;;;13.60;96.30;;;;;;4954097;29;20206;-77
2022/09/11 07:46:25;;;;;;;18.57;14.40;;;13.70;96.30;;;;;;4955729;28;20418;-79
2022/09/11 07:48:52;;;;;;;15.90;14.03;;;13.90;96.30;;;;;;4955440;28;20430;-79
2022/09/11 07:51:18;;;;;;;16.13;14.57;;;13.90;96.30;;;;;;4952229;28;20442;-78
2022/09/11 07:53:48;;;;;;;17.80;15.20;;;13.90;96.30;;;;;;4950793;28;20829;-78
2022/09/11 07:56:20;;;;;;;16.80;15.00;;;13.90;96.30;;;;;;4937104;29;20778;-79
2022/09/11 07:58:46;;;;;;;16.03;14.50;;;13.90;96.30;;;;;;4950173;29;20415;-78
2022/09/11 08:01:15;;;;;;;15.37;13.87;;;13.90;96.30;;;;;;4951843;28;20926;-78
2022/09/11 08:03:44;;;;;;;16.60;15.00;;;13.90;96.30;;;;;;4946137;28;20475;-78
2022/09/11 08:06:17;;;;;;;17.20;14.93;;;13.80;96.30;;;;;;4942027;29;20813;-78
2022/09/11 08:08:44;;;;;;;13.33;11.93;;;13.90;96.30;;;;;;4944757;29;20914;-78
2022/09/11 08:11:16;;;;;;;12.30;11.00;;;13.90;96.30;;;;;;4943136;28;20441;-78
2022/09/11 08:13:45;;;;;;;13.53;12.23;;;14.00;96.30;;;;;;4942192;29;20790;-80
2022/09/11 08:16:11;;;;;;;12.73;11.40;;;14.00;96.30;;;;;;4935912;29;20430;-79
2022/09/11 08:18:36;;;;;;;14.60;13.00;;;14.00;96.30;;;;;;4936604;29;20427;-78
2022/09/11 08:21:07;;;;;;;16.73;13.07;;;14.10;96.30;;;;;;4936641;29;20206;-80
2022/09/11 08:23:33;;;;;;;15.70;14.20;;;14.10;96.30;;;;;;4938413;28;20176;-79
2022/09/11 08:26:10;;;;;;;14.50;13.10;;;14.10;96.30;;;;;;4954114;28;21497;-79
2022/09/11 08:28:37;;;;;;;16.13;14.47;;;14.10;96.30;;;;;;4958644;29;20450;-79
2022/09/11 08:31:04;;;;;;;17.37;13.83;;;14.20;96.30;;;;;;4965910;28;20442;-79
2022/09/11 08:33:30;;;;;;;16.33;14.73;;;14.30;96.30;;;;;;4966829;28;20429;-79
2022/09/11 08:36:01;;;;;;;13.57;11.97;;;14.50;96.30;;;;;;4959557;29;20422;-79
2022/09/11 08:38:27;;;;;;;11.07;9.93;;;14.60;96.30;;;;;;4954565;28;20958;-79
2022/09/11 08:40:53;;;;;;;14.47;10.93;;;14.50;96.30;;;;;;4957963;28;20434;-79
2022/09/11 08:43:25;;;;;;;12.70;11.43;;;14.50;96.30;;;;;;4942032;28;20795;-79
2022/09/11 08:45:57;;;;;;;12.00;10.80;;;14.40;96.30;;;;;;4944471;29;20549;-80
2022/09/11 08:48:31;;;;;;;17.90;11.80;;;14.40;96.30;;;;;;4955518;28;20433;-79
2022/09/11 08:50:56;;;;;;;12.50;11.17;;;14.30;96.30;;;;;;4951356;28;20440;-80
2022/09/11 08:53:22;;;;;;;13.43;10.40;;;14.30;96.30;;;;;;4955257;28;20413;-79
2022/09/11 08:55:55;;;;;;;11.90;10.70;;;14.40;96.30;;;;;;4955578;28;20191;-80
2022/09/11 08:58:35;;;;;;;15.13;11.20;;;14.70;96.30;;;;;;4955227;28;20186;-79
2022/09/11 09:01:22;;;;;;;12.20;10.73;;;15.90;96.30;;;;;;4952425;28;20461;-80
2022/09/11 09:03:54;;;;;;;9.70;8.33;;;17.00;96.30;;;;;;4935841;29;20451;-79
2022/09/11 09:06:44;;;;;;;7.27;6.57;;;16.90;96.30;;;;;;4939079;29;20935;-78
2022/09/11 09:09:14;;;;;;;6.70;6.00;;;16.80;96.30;;;;;;4935393;29;20392;-79
2022/09/11 09:11:54;;;;;;;6.80;6.13;;;16.70;96.30;;;;;;4937479;29;20426;-79
2022/09/11 09:14:36;;;;;;;7.90;7.20;;;16.80;96.30;;;;;;4946662;29;20410;-81
2022/09/11 09:17:18;;;;;;;9.50;7.50;;;17.00;96.30;;;;;;4936238;29;20396;-80
2022/09/11 09:19:45;;;;;;;9.67;5.83;;;16.50;96.30;;;;;;4945728;28;20501;-80
2022/09/11 09:22:49;;;;;;;6.60;5.90;;;16.00;96.30;;;;;;4954917;28;20510;-79
2022/09/11 09:25:19;;;;;;;9.07;6.97;;;15.80;96.30;;;;;;4957775;29;21066;-79
2022/09/11 09:27:48;;;;;;;9.50;5.50;;;16.40;96.30;;;;;;4974124;28;20442;-79
2022/09/11 09:30:17;;;;;;;6.73;5.50;;;17.00;96.30;;;;;;4954695;28;20422;-80
2022/09/11 09:32:52;;;;;;;7.23;5.27;;;17.40;96.30;;;;;;4957776;28;20422;-79
2022/09/11 09:35:40;;;;;;;10.57;5.10;;;17.40;96.30;;;;;;4955038;28;20409;-79
2022/09/11 09:38:20;;;;;;;5.27;4.77;;;17.00;96.30;;;;;;4954396;28;20501;-80
2022/09/11 09:41:15;;;;;;;8.27;4.20;;;16.60;96.30;;;;;;4959905;28;20957;-79
2022/09/11 09:44:18;;;;;;;6.43;5.67;;;16.60;96.30;;;;;;4956524;28;20435;-79
2022/09/11 09:46:47;;;;;;;7.03;4.57;;;16.50;96.30;;;;;;4945476;28;20509;-79
2022/09/11 09:49:24;;;;;;;5.07;4.57;;;16.60;96.30;;;;;;4967228;28;20410;-80
2022/09/11 09:51:50;;;;;;;4.73;3.87;;;16.80;96.30;;;;;;4962441;28;20426;-80
2022/09/11 09:54:19;;;;;;;7.67;3.90;;;16.90;96.30;;;;;;4979495;28;20445;-80
2022/09/11 09:56:57;;;;;;;3.40;3.03;;;17.00;96.30;;;;;;4970959;28;20418;-79
2022/09/11 09:59:33;;;;;;;6.60;3.27;;;17.40;96.30;;;;;;4963490;28;20759;-80
2022/09/11 10:01:58;;;;;;;5.80;3.00;;;17.70;96.30;;;;;;4960287;28;20650;-79
2022/09/11 10:04:29;;;;;;;3.57;3.00;;;18.50;96.30;;;;;;4950698;29;20821;-79
2022/09/11 10:07:21;;;;;;;3.10;2.77;;;18.80;96.30;;;;;;4937642;29;20207;-79
2022/09/11 10:09:49;;;;;;;3.87;2.90;;;19.80;96.30;;;;;;4957815;28;20414;-79
2022/09/11 10:12:26;;;;;;;6.63;2.43;;;19.30;96.30;;;;;;4968189;28;20441;-79
2022/09/11 10:15:00;;;;;;;3.00;2.70;;;18.80;96.30;;;;;;4946502;29;20837;-79
2022/09/11 10:17:32;;;;;;;3.97;2.60;;;19.20;96.30;;;;;;4960074;29;20426;-82
2022/09/11 10:20:17;;;;;;;5.33;2.63;;;19.80;96.30;;;;;;4963419;29;20426;-79
2022/09/11 10:22:43;;;;;;;2.73;2.50;;;19.30;96.30;;;;;;4956181;28;21000;-79
2022/09/11 10:25:14;;;;;;;3.10;2.57;;;19.80;96.30;;;;;;4955166;29;20834;-80
2022/09/11 10:28:07;;;;;;;5.13;2.30;;;20.10;96.30;;;;;;4953539;28;20411;-79
2022/09/11 11:38:06;;;;;;;15.33;11.07;;;14.40;96.30;;;;;;5599956;23;20494;-81
2022/09/11 11:40:40;;;;;;;14.33;11.00;;;14.70;96.30;;;;;;4994882;28;20448;-78
2022/09/11 11:43:10;;;;;;;13.37;10.60;;;14.80;96.30;;;;;;4995570;28;20399;-79
2022/09/11 11:45:40;;;;;;;13.17;10.13;;;14.90;96.30;;;;;;4995482;28;20534;-78
2022/09/11 11:48:17;;;;;;;11.53;10.33;;;14.80;96.30;;;;;;4995300;28;20455;-79
2022/09/11 11:50:47;;;;;;;13.97;9.73;;;14.80;96.30;;;;;;4995229;28;20428;-80
2022/09/11 11:53:34;;;;;;;14.27;11.20;;;14.80;96.30;;;;;;4995293;28;20408;-80
2022/09/11 11:56:03;;;;;;;12.30;10.90;;;14.80;96.30;;;;;;4997237;28;20405;-79
2022/09/11 11:58:35;;;;;;;13.53;10.40;;;14.70;96.30;;;;;;4999478;28;20440;-80
2022/09/11 12:01:04;;;;;;;12.17;9.90;;;14.40;96.30;;;;;;4997681;28;20451;-80
2022/09/11 12:03:43;;;;;;;13.80;9.87;;;14.30;96.30;;;;;;4999420;28;20507;-79
2022/09/11 12:06:09;;;;;;;15.13;10.93;;;14.20;96.30;;;;;;4996405;28;20471;-78
2022/09/11 12:08:52;;;;;;;15.07;12.00;;;14.20;96.30;;;;;;4994216;28;20832;-78
2022/09/11 12:11:27;;;;;;;15.57;12.53;;;14.20;96.30;;;;;;4975323;28;20190;-77
2022/09/11 12:13:53;;;;;;;15.00;11.10;;;14.10;96.30;;;;;;4974289;28;20421;-77
2022/09/11 12:16:23;;;;;;;16.50;10.40;;;14.20;96.30;;;;;;4975927;28;20414;-78
2022/09/11 12:19:03;;;;;;;15.17;11.17;;;14.20;96.30;;;;;;4974790;28;20433;-77
2022/09/11 12:21:30;;;;;;;11.00;9.90;;;14.20;96.30;;;;;;4976364;28;20437;-78
2022/09/11 12:24:11;;;;;;;17.00;11.57;;;14.30;96.30;;;;;;4976305;28;20902;-78
2022/09/11 12:26:37;;;;;;;13.20;11.27;;;14.40;96.30;;;;;;4977204;28;20424;-78
2022/09/11 12:29:11;;;;;;;16.30;12.53;;;14.60;96.30;;;;;;4977523;28;20417;-78
2022/09/11 12:31:49;;;;;;;18.50;13.73;;;14.70;96.30;;;;;;4978483;28;20193;-79
2022/09/11 12:34:45;;;;;;;16.83;12.57;;;14.60;96.30;;;;;;4978185;28;20410;-79
2022/09/11 12:37:24;;;;;;;25.13;15.50;;;14.70;96.30;;;;;;4975712;28;20437;-79
2022/09/11 12:39:54;;;;;;;21.40;16.33;;;15.10;96.30;;;;;;4976215;28;20460;-79
2022/09/11 12:42:22;;;;;;;19.70;14.83;;;15.20;96.30;;;;;;4993518;28;20937;-79
2022/09/11 12:44:48;;;;;;;17.30;12.27;;;15.30;96.30;;;;;;4996027;28;20456;-78
2022/09/11 12:47:22;;;;;;;21.57;12.20;;;15.40;96.30;;;;;;4995932;28;20483;-79
2022/09/11 12:50:04;;;;;;;16.80;11.13;;;15.60;96.30;;;;;;4995637;28;20169;-79
2022/09/11 12:52:46;;;;;;;15.23;11.47;;;15.70;96.30;;;;;;4995230;28;20432;-79
2022/09/11 12:55:30;;;;;;;14.80;12.00;;;15.80;96.30;;;;;;4995658;28;20400;-79
2022/09/11 12:58:01;;;;;;;17.60;13.10;;;15.80;96.30;;;;;;4994986;28;21003;-79
2022/09/11 13:00:34;;;;;;;15.23;12.50;;;16.00;96.30;;;;;;4995308;28;20926;-79
2022/09/11 13:03:01;;;;;;;14.83;11.70;;;16.30;96.30;;;;;;4994570;28;20415;-79
2022/09/11 13:05:36;;;;;;;12.37;10.37;;;16.20;96.30;;;;;;4995699;28;20468;-79
2022/09/11 13:08:23;;;;;;;12.07;10.27;;;16.20;96.30;;;;;;4995161;28;20432;-79
2022/09/11 13:10:49;;;;;;;11.43;9.13;;;16.30;96.30;;;;;;4976610;28;20963;-79
2022/09/11 13:13:39;;;;;;;14.70;7.80;;;16.40;96.30;;;;;;4975500;28;20422;-79
2022/09/11 13:16:21;;;;;;;9.07;7.37;;;16.40;96.30;;;;;;4976149;28;20170;-79
2022/09/11 13:18:47;;;;;;;10.30;7.07;;;16.30;96.30;;;;;;4974438;28;20421;-79
2022/09/11 13:21:17;;;;;;;9.57;7.50;;;16.20;96.30;;;;;;4975447;28;20444;-79
2022/09/11 13:23:42;;;;;;;9.70;7.40;;;16.10;96.30;;;;;;4973950;28;20185;-79
2022/09/11 13:26:14;;;;;;;9.77;7.10;;;16.20;96.30;;;;;;4972573;28;20936;-79
2022/09/11 13:28:46;;;;;;;10.63;7.20;;;16.20;96.30;;;;;;4973964;28;20171;-79
2022/09/11 13:31:23;;;;;;;10.63;7.27;;;16.00;96.30;;;;;;4974082;28;20418;-79
2022/09/11 13:33:50;;;;;;;10.83;8.10;;;15.70;96.30;;;;;;4974005;28;20421;-78
2022/09/11 13:36:20;;;;;;;10.40;9.30;;;15.50;96.30;;;;;;4973843;28;20824;-79
2022/09/11 13:38:51;;;;;;;11.63;9.10;;;15.50;96.30;;;;;;4973504;28;20436;-79
2022/09/11 13:41:22;;;;;;;11.97;9.47;;;15.60;96.30;;;;;;4983472;28;20455;-79
2022/09/11 13:43:59;;;;;;;14.13;10.20;;;15.60;96.30;;;;;;4993228;28;20901;-79
2022/09/11 13:46:30;;;;;;;13.60;8.73;;;15.80;96.30;;;;;;4993117;28;20452;-79
2022/09/11 13:49:16;;;;;;;11.03;9.90;;;16.10;96.30;;;;;;4993064;28;20409;-79
2022/09/11 13:51:46;;;;;;;12.20;9.50;;;16.30;96.30;;;;;;4981802;28;20856;-78
2022/09/11 13:54:30;;;;;;;16.33;9.73;;;16.60;96.30;;;;;;4993218;28;20414;-79
2022/09/11 13:56:55;;;;;;;10.80;9.30;;;16.70;96.30;;;;;;5008072;28;20471;-79
2022/09/11 13:59:38;;;;;;;11.30;8.90;;;16.80;96.30;;;;;;5007949;28;20444;-79
2022/09/11 14:02:21;;;;;;;11.60;9.30;;;16.90;96.30;;;;;;4992977;28;20187;-79
2022/09/11 14:04:48;;;;;;;8.17;7.37;;;16.80;96.30;;;;;;5007944;28;20503;-79
2022/09/11 14:07:25;;;;;;;8.90;7.20;;;16.30;96.30;;;;;;4992775;28;20408;-79
2022/09/11 14:10:03;;;;;;;10.50;7.60;;;15.90;96.30;;;;;;4982161;28;20421;-79
2022/09/11 14:12:30;;;;;;;9.03;7.23;;;15.80;96.30;;;;;;4972173;28;20472;-79
2022/09/11 14:14:58;;;;;;;6.73;6.13;;;15.70;96.30;;;;;;4973648;28;21010;-79
2022/09/11 14:17:24;;;;;;;10.53;7.00;;;15.40;96.30;;;;;;4973569;28;20508;-79
2022/09/11 14:19:53;;;;;;;7.40;5.27;;;15.40;96.30;;;;;;4973510;28;21104;-79
2022/09/11 14:22:28;;;;;;;7.10;5.83;;;15.50;96.30;;;;;;4973207;28;20448;-79
2022/09/11 14:25:15;;;;;;;6.23;5.63;;;15.70;96.30;;;;;;4972112;28;20461;-79
2022/09/11 14:27:42;;;;;;;4.13;3.73;;;15.70;96.30;;;;;;4973380;28;20460;-79
2022/09/11 14:30:29;;;;;;;4.70;3.73;;;15.70;96.30;;;;;;4973147;28;20420;-79
2022/09/11 14:33:22;;;;;;;4.90;4.50;;;15.70;96.30;;;;;;4973268;28;20409;-80
2022/09/11 14:35:47;;;;;;;15.33;5.07;;;15.60;96.30;;;;;;4971970;28;20417;-78
2022/09/11 14:38:17;;;;;;;5.10;4.23;;;15.60;96.30;;;;;;4976466;28;20926;-79
2022/09/11 14:40:49;;;;;;;5.83;4.80;;;15.50;96.30;;;;;;4982155;28;20232;-79
2022/09/11 14:43:23;;;;;;;5.70;5.20;;;15.50;96.30;;;;;;5011844;28;20520;-79
2022/09/11 14:45:49;;;;;;;6.73;4.17;;;15.50;96.30;;;;;;4996438;28;20452;-78
2022/09/11 14:48:14;;;;;;;4.50;4.10;;;15.50;96.30;;;;;;5011474;28;20491;-80
2022/09/11 14:50:40;;;;;;;6.73;4.57;;;15.40;96.30;;;;;;4996265;28;20993;-79
2022/09/11 14:53:11;;;;;;;4.80;4.20;;;15.50;96.30;;;;;;5011360;28;20185;-79
2022/09/11 14:55:36;;;;;;;8.10;4.37;;;15.70;96.30;;;;;;4996477;28;20515;-79
2022/09/11 14:58:02;;;;;;;4.53;4.10;;;15.90;96.30;;;;;;4996249;28;20417;-79
2022/09/11 15:00:30;;;;;;;6.37;4.80;;;15.90;96.30;;;;;;4996175;28;20192;-79
2022/09/11 15:02:56;;;;;;;6.77;5.07;;;15.80;96.30;;;;;;4996124;28;20447;-79
2022/09/11 15:05:23;;;;;;;6.10;4.20;;;15.60;96.30;;;;;;4996078;28;20944;-79
2022/09/11 15:07:49;;;;;;;9.00;4.37;;;15.50;96.30;;;;;;4996256;28;20768;-80
2022/09/11 15:10:14;;;;;;;6.67;4.50;;;15.30;96.30;;;;;;4982534;28;20421;-79
2022/09/11 15:12:41;;;;;;;5.93;4.20;;;15.20;96.30;;;;;;4975699;28;20181;-79
2022/09/11 15:15:07;;;;;;;8.60;4.60;;;15.10;96.30;;;;;;4976984;28;20174;-79
2022/09/11 15:17:35;;;;;;;7.07;4.47;;;15.20;96.30;;;;;;4977042;28;20449;-79
2022/09/11 15:20:03;;;;;;;4.80;4.30;;;15.30;96.30;;;;;;4976937;28;20843;-80
2022/09/11 15:22:30;;;;;;;4.87;4.40;;;15.40;96.30;;;;;;4978523;28;20507;-79
2022/09/11 15:24:55;;;;;;;5.40;4.00;;;15.40;96.30;;;;;;4978884;28;20460;-80
2022/09/11 15:27:23;;;;;;;5.10;4.37;;;15.70;96.30;;;;;;4975639;28;20742;-80
2022/09/11 15:29:49;;;;;;;4.53;3.30;;;16.00;96.30;;;;;;4976585;28;20177;-80
2022/09/11 15:32:15;;;;;;;4.93;3.83;;;16.10;96.30;;;;;;4976962;28;20937;-80
2022/09/11 15:34:42;;;;;;;4.03;3.63;;;16.20;96.30;;;;;;4977013;28;20186;-80
2022/09/11 15:37:08;;;;;;;4.63;4.20;;;16.00;96.30;;;;;;4974983;28;20214;-79
2022/09/11 15:39:33;;;;;;;4.67;3.70;;;15.90;96.30;;;;;;4970446;28;20505;-79
2022/09/11 15:42:00;;;;;;;4.30;3.37;;;16.00;96.30;;;;;;4970227;28;20575;-79
2022/09/11 15:44:27;;;;;;;4.50;3.40;;;16.20;96.30;;;;;;4971790;28;20197;-80
2022/09/11 15:46:54;;;;;;;9.60;3.80;;;16.50;96.30;;;;;;4966599;28;20406;-79
2022/09/11 15:49:20;;;;;;;5.30;2.93;;;16.60;96.30;;;;;;4968800;28;20414;-79
2022/09/11 15:51:47;;;;;;;3.63;3.33;;;16.50;96.30;;;;;;4956531;28;20866;-81
2022/09/11 15:54:14;;;;;;;5.57;2.87;;;16.50;96.30;;;;;;4955881;29;20522;-80
2022/09/11 15:56:40;;;;;;;4.27;3.10;;;16.60;96.30;;;;;;4965833;28;20417;-79
2022/09/11 15:59:06;;;;;;;2.90;2.50;;;16.50;96.30;;;;;;4975975;28;20417;-79
2022/09/11 16:01:33;;;;;;;2.70;2.50;;;16.40;96.30;;;;;;4978769;28;20202;-81
2022/09/11 16:04:01;;;;;;;4.97;3.80;;;16.60;96.30;;;;;;4979187;28;20182;-80
2022/09/11 16:06:29;;;;;;;3.80;3.13;;;16.60;96.30;;;;;;4985617;28;20973;-80
2022/09/11 16:08:56;;;;;;;3.60;3.30;;;16.30;96.30;;;;;;4979795;28;20462;-82
2022/09/11 16:11:23;;;;;;;4.90;3.47;;;15.80;96.30;;;;;;4994567;28;20487;-80
2022/09/11 16:13:49;;;;;;;3.87;3.50;;;15.60;96.30;;;;;;4989439;28;20418;-80
2022/09/11 16:16:16;;;;;;;4.70;4.03;;;15.60;96.30;;;;;;4973967;28;20947;-81
2022/09/11 16:18:42;;;;;;;4.37;3.47;;;15.80;96.30;;;;;;4974546;28;20461;-82
2022/09/11 16:21:10;;;;;;;5.00;3.60;;;15.90;96.30;;;;;;4975086;28;20516;-80
2022/09/11 16:23:37;;;;;;;4.07;3.70;;;16.10;96.30;;;;;;4973830;28;20269;-81
2022/09/11 16:26:05;;;;;;;5.33;3.73;;;16.10;96.30;;;;;;4974511;28;20479;-78
2022/09/11 16:28:35;;;;;;;4.03;3.63;;;16.10;96.30;;;;;;4973796;28;20409;-77
2022/09/11 16:31:02;;;;;;;3.53;3.23;;;16.00;96.30;;;;;;4973590;28;20434;-79
2022/09/11 16:33:29;;;;;;;9.63;4.17;;;15.90;96.30;;;;;;4972762;28;20407;-79
2022/09/11 16:36:17;;;;;;;3.77;3.47;;;15.90;96.30;;;;;;4982004;28;21087;-79
2022/09/11 16:38:42;;;;;;;6.37;3.60;;;15.80;96.30;;;;;;4981579;28;20428;-79
2022/09/11 16:46:21;;;;;;;4.40;4.10;;;15.50;96.30;;;;;;5605802;23;20480;-79
2022/09/11 16:48:47;;;;;;;3.93;3.53;;;15.40;96.30;;;;;;4982594;28;20418;-80
2022/09/11 16:51:14;;;;;;;4.03;3.67;;;15.30;96.30;;;;;;4974092;28;20434;-78
2022/09/11 16:53:40;;;;;;;5.30;3.80;;;15.20;96.30;;;;;;4989503;28;20416;-79
2022/09/11 16:56:09;;;;;;;7.03;3.17;;;15.10;96.30;;;;;;4977494;28;20420;-78
2022/09/11 16:58:35;;;;;;;4.13;3.73;;;14.90;96.30;;;;;;4980552;28;20570;-79
2022/09/11 17:01:09;;;;;;;6.83;3.67;;;14.80;96.30;;;;;;4977721;28;20955;-78
2022/09/11 17:03:35;;;;;;;3.67;3.37;;;14.50;96.30;;;;;;4960479;28;20417;-77
2022/09/11 17:06:02;;;;;;;5.73;4.37;;;14.40;96.30;;;;;;4969565;28;20488;-77
2022/09/11 17:08:29;;;;;;;3.97;3.67;;;14.20;96.30;;;;;;4963970;28;20916;-78
2022/09/11 17:10:57;;;;;;;4.43;4.03;;;14.20;96.30;;;;;;4958640;28;20528;-77
2022/09/11 17:13:22;;;;;;;4.60;3.57;;;14.00;96.30;;;;;;4987846;28;20420;-78
2022/09/11 17:15:48;;;;;;;6.70;4.03;;;13.90;96.30;;;;;;4966347;28;20423;-77
2022/09/11 17:18:15;;;;;;;4.73;4.20;;;13.70;96.30;;;;;;4984424;28;20658;-77
2022/09/11 17:20:41;;;;;;;5.50;3.80;;;13.60;96.30;;;;;;4981756;28;20205;-77
2022/09/11 17:23:06;;;;;;;5.57;4.13;;;13.50;96.30;;;;;;4989421;28;20434;-77
2022/09/11 17:25:37;;;;;;;7.53;5.57;;;13.40;96.30;;;;;;4972790;28;20470;-77
2022/09/11 17:28:02;;;;;;;5.70;5.10;;;13.40;96.30;;;;;;4981295;28;20614;-76
2022/09/11 17:30:28;;;;;;;5.43;4.90;;;13.30;96.30;;;;;;4974097;28;20417;-75
2022/09/11 17:32:53;;;;;;;6.13;5.07;;;13.20;96.30;;;;;;4973765;28;20705;-77
2022/09/11 17:35:19;;;;;;;9.33;4.83;;;13.00;96.30;;;;;;4973995;28;20224;-77
2022/09/11 17:37:45;;;;;;;5.20;4.73;;;12.90;96.30;;;;;;4973949;28;20638;-77
2022/09/11 17:40:12;;;;;;;9.87;5.30;;;12.80;96.30;;;;;;4965549;28;20205;-78
2022/09/11 17:42:38;;;;;;;7.23;5.50;;;12.70;96.30;;;;;;4970694;28;20797;-77
2022/09/11 17:45:04;;;;;;;8.07;6.10;;;12.70;96.30;;;;;;4959295;28;20968;-77
2022/09/11 17:47:32;;;;;;;8.47;5.63;;;12.60;96.30;;;;;;4959082;28;20186;-79
2022/09/11 17:50:00;;;;;;;8.00;5.83;;;12.50;96.30;;;;;;4952617;29;20414;-79
2022/09/11 17:52:26;;;;;;;7.53;5.70;;;12.40;96.30;;;;;;4959277;28;20442;-77
2022/09/11 17:54:52;;;;;;;8.23;6.70;;;12.40;96.30;;;;;;4967405;28;20481;-79
2022/09/11 17:57:18;;;;;;;7.70;6.90;;;12.40;96.30;;;;;;4972831;28;20425;-79
2022/09/11 17:59:45;;;;;;;9.57;7.30;;;12.30;96.30;;;;;;4971348;28;20188;-75
2022/09/11 18:02:13;;;;;;;11.47;7.70;;;12.30;96.30;;;;;;4970182;28;20197;-77
2022/09/11 18:04:38;;;;;;;11.53;8.10;;;12.30;96.30;;;;;;4962298;28;20461;-77